Startpagina
METAR-TAF:

METAR-TAF

Vliegvelden :

Leticia, Colombia

breedte: 04-10S, lengte: 069-57W, hoogte: 84 m

Actueel weer

Dit bericht is 47 minuten geleden gemaakt, om 07:00 UTC
Weinig wind
Temperatuur 24°C
Vochtigheid 100%
Druk 1010 hPa
Zicht 10 km of meer
Gebroken wolken op 1500 ft
Verspreide wolken op 8000 ft

METAR: SKLT 210700Z 00000KT 9999 BKN015 SCT080 24/24 A2983

Tijdstip: 02:47 (07:47 UTC)

Verwachting

Dit bericht is 3 uur en het 17 minuten geleden gemaakt, om 04:30 UTC
Verwachting geldig van 21 om 06 UTC tot 22 om 06 UTC
Wind kt uit het noorden
Zicht 10 km of meer
Verspreide wolken op 1700 ft
Verspreide wolken op 9000 ft
Tijdelijke
van 21 om 16 UTC tot 21 om 21 UTC
Wind 6 kt uit het noordoosten
Kans 40%
van 21 om 20 UTC tot 21 om 21 UTC
Zicht: 8000 m
Gebroken wolken op 1500 ft
motregen

TAF: SKLT 210430Z 2106/2206 00000KT 9999 SCT017 SCT090 TEMPO 2116/2121 04006KT PROB40 2120/2121 8000 DZ BKN015 TX31/2119Z TN19/2111Z

Waarnemingen en weersverwachtingen van meer dan 4000 vliegvelden (METAR en TAF).

De beschikbare stations zijn de gele en rode punten op de kaart.

Ga met uw muis naar het station om de naam te zien.

Klik dan om waarnemingen en weersverwachtingen te zien.

kaart wijzigen: klik op de groene knoppen met een zwart kruis om in te zoomen, op de groene knop met een streepje om uit te zoomen of op de groene pijlen voor aangrenzende kaarten.


METAR-TAF: